WetterOnline ( https://www.wetteronline.de )

Wetter aktuell Arkona

Aktuelles Wetter: Kap Arkona/Rügen (42m)

6-stündlich | Neueste Meldungen
Ortszeit Temperatur Wetter
Mi, 08.04. 8:00 8.3° C leicht bewölkt
Mi, 08.04. 2:00 7.9° C wolkig
Di, 07.04. 20:00 9.5° C wolkig
Di, 07.04. 14:00 12.3° C wolkenlos
Di, 07.04. 8:00 8.5° C fast wolkenlos
Di, 07.04. 2:00 10.5° C wolkenlos
Mo, 06.04. 20:00 13.2° C wolkenlos
Mo, 06.04. 14:00 9.0° C wolkenlos
Ortszeit Temperatur Wetter
Mi, 08.04. 11:30 10.1° C wolkig
Mi, 08.04. 11:20 10.1° C wolkig
Mi, 08.04. 11:10 11.5° C wolkig
Mi, 08.04. 11:00 10.8° C leicht bewölkt
Mi, 08.04. 10:50 10.8° C leicht bewölkt
Mi, 08.04. 10:40 10.3° C fast wolkenlos
Mi, 08.04. 10:30 9.8° C leicht bewölkt
Mi, 08.04. 10:00 9.7° C leicht bewölkt
Ortszeit Relative Feuchte Sichtweite
Mi, 08.04. 8:00 69% 35 km
Mi, 08.04. 2:00 70% 30 km
Di, 07.04. 20:00 68% 40 km
Di, 07.04. 14:00 61% 35 km
Di, 07.04. 8:00 84% 10 km
Di, 07.04. 2:00 58% 30 km
Mo, 06.04. 20:00 51% 30 km
Mo, 06.04. 14:00 70% 21 km
Ortszeit Relative Feuchte Sichtweite
Mi, 08.04. 11:30 65% 35 km
Mi, 08.04. 11:20 65% -
Mi, 08.04. 11:10 61% -
Mi, 08.04. 11:00 64% 40 km
Mi, 08.04. 10:50 64% -
Mi, 08.04. 10:40 63% -
Mi, 08.04. 10:30 66% 55 km
Mi, 08.04. 10:00 65% 35 km
Ortszeit Niederschlagsmenge Niederschlagsart
Mi, 08.04. 8:00 0.0 l/m2 in 12 Std. -
Mi, 08.04. 2:00 0.0 l/m2 in 6 Std. -
Di, 07.04. 20:00 0.0 l/m2 in 12 Std. -
Di, 07.04. 14:00 0.0 l/m2 in 6 Std. -
Di, 07.04. 8:00 0.0 l/m2 in 12 Std. -
Di, 07.04. 2:00 0.0 l/m2 in 6 Std. -
Mo, 06.04. 20:00 0.0 l/m2 in 12 Std. -
Mo, 06.04. 14:00 0.0 l/m2 in 6 Std. -
Ortszeit Niederschlagsmenge Niederschlagsart
Mi, 08.04. 11:30 0.0 l/m2 in 1 Std. -
Mi, 08.04. 11:20 keine Meldung -
Mi, 08.04. 11:10 keine Meldung -
Mi, 08.04. 11:00 0.0 l/m2 in 1 Std. -
Mi, 08.04. 10:50 keine Meldung -
Mi, 08.04. 10:40 keine Meldung -
Mi, 08.04. 10:30 0.0 l/m2 in 1 Std. -
Mi, 08.04. 10:00 0.0 l/m2 in 1 Std. -
Ortszeit Stärke Spitze Richtung
km/h Bft. km/h Grad Sektor
Mi, 08.04. 8:00 13 3 17 140° SO
Mi, 08.04. 2:00 2 1 13 210° SW
Di, 07.04. 20:00 11 2 47 280° W
Di, 07.04. 14:00 31 5 44 270° W
Di, 07.04. 8:00 31 5 48 280° W
Di, 07.04. 2:00 24 4 30 210° SW
Mo, 06.04. 20:00 22 4 36 160° S
Mo, 06.04. 14:00 22 4 40 120° SO
Ortszeit Stärke Spitze Richtung
km/h Bft. km/h Grad Sektor
Mi, 08.04. 11:30 7 2 14 150° SO
Mi, 08.04. 11:20 7 2 - 150° SO
Mi, 08.04. 11:10 7 2 - 160° S
Mi, 08.04. 11:00 11 2 15 160° S
Mi, 08.04. 10:50 11 2 - 160° S
Mi, 08.04. 10:40 11 2 - 160° S
Mi, 08.04. 10:30 9 2 15 160° S
Mi, 08.04. 10:00 11 2 22 160° S
Ortszeit Untergrenze Bedeckung Gattung
total tief tief mittel hoch
Mi, 08.04. 8:00 9000 m 3/8 0/8 - - -
Mi, 08.04. 2:00 8700 m 8/8 0/8 - - -
Di, 07.04. 20:00 9000 m 7/8 0/8 - - -
Di, 07.04. 14:00 - 0/8 0/8 - - -
Di, 07.04. 8:00 3600 m 1/8 1/8 - - -
Di, 07.04. 2:00 - 0/8 0/8 - - -
Mo, 06.04. 20:00 - 0/8 0/8 - - -
Mo, 06.04. 14:00 - 0/8 0/8 - - -
Ortszeit Bedeckungsgrad in Achtel und Wolkenuntergrenze
Mi, 08.04. 11:30 8(10500m)
Mi, 08.04. 11:20 8(10500m)
Mi, 08.04. 11:10 7(10500m)
Mi, 08.04. 11:00 4(10500m)
Mi, 08.04. 10:50 4(10500m)
Mi, 08.04. 10:40 2(10500m)
Mi, 08.04. 10:30 6(10500m)
Mi, 08.04. 10:00 6(10500m)
Ortszeit Luftdruck NN (hPa) Tendenz (hPa in 3 Std.)
Mi, 08.04. 8:00 1032 - 0,4
Mi, 08.04. 2:00 1034 + 0,1
Di, 07.04. 20:00 1033 + 0,4
Di, 07.04. 14:00 1032 + 1,9
Di, 07.04. 8:00 1027 + 2,5
Di, 07.04. 2:00 1023 + 0,3
Mo, 06.04. 20:00 1022 - 0,5
Mo, 06.04. 14:00 1024 - 0,7
Ortszeit Luftdruck NN (hPa) Tendenz (hPa in 3 Std.)
Mi, 08.04. 11:30 1030 - 1,3
Mi, 08.04. 11:20 1030 keine Meldung
Mi, 08.04. 11:10 1030 keine Meldung
Mi, 08.04. 11:00 1031 - 1,4
Mi, 08.04. 10:50 1031 keine Meldung
Mi, 08.04. 10:40 1031 keine Meldung
Mi, 08.04. 10:30 1031 - 1,0
Mi, 08.04. 10:00 1031 - 0,8
Ortszeit Schneehöhe (cm)
Mi, 08.04. 8:00 0
Mi, 08.04. 2:00 0
Di, 07.04. 20:00 0
Di, 07.04. 14:00 0
Di, 07.04. 8:00 0
Di, 07.04. 2:00 0
Mo, 06.04. 20:00 0
Mo, 06.04. 14:00 0
Ortszeit Schneehöhe (cm)
Mi, 08.04. 11:30 0
Mi, 08.04. 11:20 0
Mi, 08.04. 11:10 0
Mi, 08.04. 11:00 0
Mi, 08.04. 10:50 0
Mi, 08.04. 10:40 0
Mi, 08.04. 10:30 0
Mi, 08.04. 10:00 0
Link zu dieser Seite / Seite empfehlen

Das Wetter in ...